createdAt,value
2023-05-17T00:01:57.787Z,40.38
2023-05-17T00:04:25.067Z,40.29
2023-05-17T00:06:52.312Z,40.33
2023-05-17T00:09:19.567Z,40.31
2023-05-17T00:11:46.828Z,40.57
2023-05-17T00:14:14.350Z,40.46
2023-05-17T00:16:41.678Z,40.37
2023-05-17T00:19:11.742Z,40.22
2023-05-17T00:21:39.198Z,40.22
2023-05-17T00:24:06.692Z,40.46
2023-05-17T00:26:34.037Z,40.60
2023-05-17T00:29:01.337Z,40.42
2023-05-17T00:31:28.682Z,40.27
2023-05-17T00:33:56.055Z,40.31
2023-05-17T00:36:23.400Z,40.33
2023-05-17T00:38:50.764Z,40.36
2023-05-17T00:41:18.526Z,40.36
2023-05-17T00:43:45.809Z,40.37
2023-05-17T00:46:13.102Z,40.24
2023-05-17T00:48:40.599Z,40.34
2023-05-17T00:51:07.925Z,40.39
2023-05-17T00:53:37.106Z,40.39
2023-05-17T00:56:05.052Z,40.66
2023-05-17T00:58:32.430Z,40.61
2023-05-17T01:01:01.401Z,40.44
2023-05-17T01:03:28.696Z,40.45
2023-05-17T01:05:56.314Z,40.69
2023-05-17T01:08:23.609Z,40.47
2023-05-17T01:11:03.739Z,40.61
2023-05-17T01:14:09.674Z,40.60
2023-05-17T01:16:44.442Z,40.64
2023-05-17T01:19:32.907Z,40.58
2023-05-17T01:22:29.440Z,40.60
2023-05-17T01:25:13.133Z,40.45
2023-05-17T01:27:42.227Z,40.66
2023-05-17T01:30:12.214Z,40.62
2023-05-17T01:32:42.387Z,40.58
2023-05-17T01:35:12.702Z,40.62
2023-05-17T01:37:40.314Z,40.71
2023-05-17T01:40:09.475Z,40.66
2023-05-17T01:42:41.932Z,40.78
2023-05-17T01:45:25.664Z,40.76
2023-05-17T01:48:15.686Z,40.50
2023-05-17T01:50:44.105Z,40.45
2023-05-17T01:53:19.037Z,40.69
2023-05-17T01:55:56.979Z,40.73
2023-05-17T01:58:26.581Z,40.80
2023-05-17T02:00:55.804Z,40.54
2023-05-17T02:03:23.209Z,40.63
2023-05-17T02:05:50.500Z,40.76
2023-05-17T02:08:17.746Z,40.75
2023-05-17T02:10:44.983Z,40.55
2023-05-17T02:13:12.876Z,40.78
2023-05-17T02:15:40.143Z,40.68
2023-05-17T02:18:07.521Z,40.83
2023-05-17T02:20:34.864Z,40.82
2023-05-17T02:23:02.108Z,40.86
2023-05-17T02:25:29.533Z,40.66
2023-05-17T02:27:56.944Z,40.60
2023-05-17T02:30:24.762Z,40.69
2023-05-17T02:32:52.467Z,40.89
2023-05-17T02:35:20.108Z,40.64
2023-05-17T02:37:47.374Z,40.67
2023-05-17T02:40:14.735Z,40.74
2023-05-17T02:42:41.970Z,40.86
2023-05-17T02:45:09.399Z,40.95
2023-05-17T02:47:36.744Z,40.73
2023-05-17T02:50:04.222Z,40.64
2023-05-17T02:52:31.464Z,40.64
2023-05-17T02:54:58.712Z,40.65
2023-05-17T02:57:25.945Z,40.74
2023-05-17T02:59:53.168Z,40.90
2023-05-17T03:02:20.401Z,40.90
2023-05-17T03:04:47.785Z,40.93
2023-05-17T03:07:15.064Z,40.81
2023-05-17T03:09:42.879Z,40.83
2023-05-17T03:12:10.405Z,40.90
2023-05-17T03:14:37.616Z,40.95
2023-05-17T03:17:05.037Z,40.81
2023-05-17T03:19:32.390Z,41.00
2023-05-17T03:21:59.811Z,40.88
2023-05-17T03:24:27.003Z,40.83
2023-05-17T03:26:54.549Z,40.76
2023-05-17T03:29:21.794Z,40.79
2023-05-17T03:31:49.035Z,40.81
2023-05-17T03:34:16.329Z,40.71
2023-05-17T03:36:45.642Z,40.95
2023-05-17T03:39:12.868Z,40.95
2023-05-17T03:41:42.041Z,40.92
2023-05-17T03:44:09.374Z,41.05
2023-05-17T03:46:36.636Z,40.87
2023-05-17T03:49:04.176Z,41.08
2023-05-17T03:51:31.533Z,41.08
2023-05-17T03:54:01.389Z,41.08
2023-05-17T03:56:28.699Z,40.86
2023-05-17T03:58:55.942Z,40.89
2023-05-17T04:01:23.146Z,40.88
2023-05-17T04:03:50.506Z,41.00
2023-05-17T04:06:17.870Z,41.02
2023-05-17T04:08:45.142Z,40.85
2023-05-17T04:11:15.105Z,40.85
2023-05-17T04:13:42.764Z,41.22
2023-05-17T04:16:10.396Z,40.89
2023-05-17T04:18:38.860Z,41.18
2023-05-17T04:21:06.824Z,41.02
2023-05-17T04:23:34.974Z,41.11
2023-05-17T04:26:03.184Z,41.03
2023-05-17T04:28:31.219Z,40.87
2023-05-17T04:30:58.465Z,41.18
2023-05-17T04:33:25.906Z,41.01
2023-05-17T04:35:55.778Z,41.02
2023-05-17T04:38:24.054Z,40.86
2023-05-17T04:40:51.343Z,41.00
2023-05-17T04:43:18.660Z,40.83
2023-05-17T04:45:45.988Z,40.93
2023-05-17T04:48:13.484Z,41.08
2023-05-17T04:50:40.880Z,40.81
2023-05-17T04:53:08.815Z,41.15
2023-05-17T04:55:36.163Z,41.09
2023-05-17T04:58:03.460Z,40.86
2023-05-17T05:00:31.128Z,41.09
2023-05-17T05:02:58.415Z,40.94
2023-05-17T05:05:25.904Z,40.78
2023-05-17T05:07:53.458Z,41.01
2023-05-17T05:10:21.050Z,40.90
2023-05-17T05:12:48.298Z,41.06
2023-05-17T05:15:16.033Z,41.04
2023-05-17T05:17:43.443Z,41.02
2023-05-17T05:20:13.330Z,41.06
2023-05-17T05:22:40.565Z,40.85
2023-05-17T05:25:08.779Z,40.91
2023-05-17T05:27:38.538Z,40.98
2023-05-17T05:30:06.287Z,41.05
2023-05-17T05:32:33.753Z,40.87
2023-05-17T05:35:01.417Z,40.96
2023-05-17T05:37:28.851Z,41.17
2023-05-17T05:39:56.108Z,41.04
2023-05-17T05:42:23.565Z,41.01
2023-05-17T05:44:50.777Z,40.80
2023-05-17T05:47:18.080Z,40.86
2023-05-17T05:49:45.889Z,40.64
2023-05-17T05:52:13.146Z,40.81
2023-05-17T05:54:40.404Z,40.75
2023-05-17T05:57:07.668Z,40.95
2023-05-17T05:59:34.979Z,40.80
2023-05-17T06:02:02.221Z,40.77
2023-05-17T06:04:43.821Z,41.04
2023-05-17T06:07:13.583Z,40.78
2023-05-17T06:09:41.277Z,40.66
2023-05-17T06:12:09.100Z,40.82
2023-05-17T06:14:37.656Z,40.76
2023-05-17T06:17:05.171Z,40.68
2023-05-17T06:19:32.616Z,40.92
2023-05-17T06:22:00.053Z,40.81
2023-05-17T06:24:27.429Z,40.89
2023-05-17T06:26:54.659Z,40.96
2023-05-17T06:29:22.329Z,40.94
2023-05-17T06:31:49.604Z,41.08
2023-05-17T06:34:16.929Z,41.00
2023-05-17T06:36:44.171Z,40.76
2023-05-17T06:39:11.473Z,40.75
2023-05-17T06:41:39.954Z,41.05
2023-05-17T06:44:07.470Z,41.08
2023-05-17T06:46:34.771Z,41.44
2023-05-17T06:49:02.249Z,41.99
2023-05-17T06:51:29.619Z,41.67
2023-05-17T06:53:56.867Z,40.53
2023-05-17T06:56:25.384Z,41.73
2023-05-17T06:58:53.072Z,41.36
2023-05-17T07:01:20.629Z,42.07
2023-05-17T07:03:47.966Z,42.34
2023-05-17T07:06:15.458Z,42.51
2023-05-17T07:08:42.879Z,42.88
2023-05-17T07:11:10.326Z,43.17
2023-05-17T07:13:37.569Z,43.14
2023-05-17T07:16:07.097Z,43.37
2023-05-17T07:18:34.522Z,41.95
2023-05-17T07:21:01.898Z,40.95
2023-05-17T07:23:29.136Z,40.64
2023-05-17T07:25:56.580Z,40.35
2023-05-17T07:28:23.837Z,40.31
2023-05-17T07:30:51.677Z,39.80
2023-05-17T07:33:19.300Z,38.81
2023-05-17T07:35:46.602Z,38.38
2023-05-17T07:38:13.890Z,38.77
2023-05-17T07:40:41.351Z,38.91
2023-05-17T07:43:08.762Z,38.63
2023-05-17T07:45:36.008Z,38.90
2023-05-17T07:48:03.383Z,39.09
2023-05-17T07:50:31.109Z,39.80
2023-05-17T07:52:58.456Z,40.09
2023-05-17T07:55:25.806Z,40.05
2023-05-17T07:57:53.042Z,40.06
2023-05-17T08:00:20.890Z,40.35
2023-05-17T08:02:48.262Z,38.35
2023-05-17T08:05:15.774Z,38.00
2023-05-17T08:07:43.122Z,38.06
2023-05-17T08:10:11.188Z,38.87
2023-05-17T08:12:38.586Z,39.06
2023-05-17T08:15:06.518Z,39.40
2023-05-17T08:17:33.986Z,39.49
2023-05-17T08:20:01.757Z,39.19
2023-05-17T08:22:29.111Z,39.35
2023-05-17T08:24:56.430Z,39.70
2023-05-17T08:27:28.190Z,39.80
2023-05-17T08:29:57.715Z,39.82
2023-05-17T08:32:26.047Z,39.87
2023-05-17T08:34:53.453Z,39.89
2023-05-17T08:37:20.842Z,39.91
2023-05-17T08:39:49.658Z,40.14
2023-05-17T08:42:22.631Z,40.05
2023-05-17T08:44:50.229Z,40.09
2023-05-17T08:47:29.691Z,40.46
2023-05-17T08:50:06.224Z,40.58
2023-05-17T08:52:33.759Z,40.42
2023-05-17T08:55:06.058Z,39.98
2023-05-17T08:57:36.624Z,39.48
2023-05-17T09:00:12.395Z,38.83
2023-05-17T09:02:40.633Z,38.60
2023-05-17T09:05:08.597Z,38.68
2023-05-17T09:07:36.455Z,39.12
2023-05-17T09:10:05.769Z,36.29
2023-05-17T09:12:34.921Z,34.85
2023-05-17T09:15:19.345Z,34.91
2023-05-17T09:17:54.359Z,35.07
2023-05-17T09:20:25.986Z,34.89
2023-05-17T09:22:53.510Z,34.31
2023-05-17T09:25:21.684Z,33.59
2023-05-17T09:27:48.959Z,34.04
2023-05-17T09:30:16.518Z,33.90
2023-05-17T09:35:19.768Z,34.72
2023-05-17T09:37:47.225Z,34.79
2023-05-17T09:40:26.892Z,34.99
2023-05-17T09:42:54.217Z,34.32
2023-05-17T09:45:24.762Z,34.37
2023-05-17T09:47:52.733Z,34.23
2023-05-17T09:50:22.003Z,34.49
2023-05-17T09:52:50.811Z,35.20
2023-05-17T09:55:18.494Z,36.45
2023-05-17T09:57:48.715Z,36.88
2023-05-17T10:00:19.274Z,36.82
2023-05-17T10:02:48.995Z,36.81
2023-05-17T10:05:18.267Z,37.05
2023-05-17T10:07:49.613Z,36.76
2023-05-17T10:10:18.156Z,37.04
2023-05-17T10:12:45.710Z,37.12
2023-05-17T10:15:16.217Z,37.06
2023-05-17T10:17:45.565Z,37.07
2023-05-17T10:20:14.146Z,37.21
2023-05-17T10:22:41.849Z,37.27
2023-05-17T10:25:09.851Z,37.41
2023-05-17T10:27:37.171Z,37.58
2023-05-17T10:30:05.212Z,37.83
2023-05-17T10:32:32.775Z,37.98
2023-05-17T10:35:10.336Z,38.20
2023-05-17T10:37:39.598Z,38.03
2023-05-17T10:40:07.745Z,38.46
2023-05-17T10:42:35.798Z,38.35
2023-05-17T10:45:04.088Z,38.72
2023-05-17T10:47:35.004Z,38.54
2023-05-17T10:50:03.459Z,38.82
2023-05-17T10:52:31.323Z,38.81
2023-05-17T10:55:00.749Z,39.01
2023-05-17T10:57:50.639Z,38.72
2023-05-17T11:00:22.032Z,38.98
2023-05-17T11:02:51.084Z,38.92
2023-05-17T11:05:25.940Z,39.03
2023-05-17T11:07:53.431Z,39.10
2023-05-17T11:10:20.759Z,39.20
2023-05-17T11:12:54.169Z,38.94
2023-05-17T11:15:26.527Z,38.88
2023-05-17T11:17:54.390Z,36.42
2023-05-17T11:20:31.816Z,35.13
2023-05-17T11:23:00.587Z,36.19
2023-05-17T11:25:38.782Z,36.33
2023-05-17T11:28:19.919Z,36.81
2023-05-17T11:30:54.140Z,36.71
2023-05-17T11:33:39.526Z,36.96
2023-05-17T11:36:14.181Z,37.17
2023-05-17T11:38:41.610Z,37.19
2023-05-17T11:43:50.430Z,37.24
2023-05-17T11:46:22.323Z,37.17
2023-05-17T11:48:52.083Z,37.40
2023-05-17T11:51:21.371Z,37.13
2023-05-17T11:53:51.278Z,37.29
2023-05-17T11:56:22.186Z,37.07
2023-05-17T11:58:55.369Z,37.02
2023-05-17T12:01:22.725Z,37.17
2023-05-17T12:03:59.147Z,36.90
2023-05-17T12:06:29.273Z,36.72
2023-05-17T12:08:56.819Z,35.11
2023-05-17T12:11:24.153Z,35.91
2023-05-17T12:13:52.077Z,35.86
2023-05-17T12:16:22.712Z,35.96
2023-05-17T12:18:51.500Z,36.07
2023-05-17T12:21:19.291Z,36.17
2023-05-17T12:23:49.572Z,36.36
2023-05-17T12:26:20.053Z,36.19
2023-05-17T12:28:57.554Z,36.69
2023-05-17T12:31:28.802Z,36.85
2023-05-17T12:33:59.135Z,36.90
2023-05-17T12:36:29.144Z,36.90
2023-05-17T12:38:56.876Z,37.22
2023-05-17T12:41:26.268Z,37.22
2023-05-17T12:44:06.298Z,37.57
2023-05-17T12:46:40.900Z,37.50
2023-05-17T12:49:09.617Z,38.02
2023-05-17T12:51:44.288Z,37.47
2023-05-17T12:54:18.848Z,37.89
2023-05-17T12:56:46.562Z,37.51
2023-05-17T12:59:21.102Z,37.63
2023-05-17T13:01:55.506Z,37.51
2023-05-17T13:04:31.755Z,37.81
2023-05-17T13:07:02.491Z,37.39
2023-05-17T13:09:31.100Z,37.49
2023-05-17T13:12:05.342Z,37.67
2023-05-17T13:14:41.173Z,37.76
2023-05-17T13:17:10.857Z,37.70
2023-05-17T13:19:39.259Z,37.68
2023-05-17T13:22:09.400Z,37.43
2023-05-17T13:24:38.468Z,37.51
2023-05-17T13:27:06.251Z,37.68
2023-05-17T13:29:40.513Z,37.40
2023-05-17T13:32:09.780Z,37.25
2023-05-17T13:34:37.060Z,37.36
2023-05-17T13:37:05.662Z,37.07
2023-05-17T13:39:33.996Z,37.32
2023-05-17T13:42:01.277Z,37.19
2023-05-17T13:44:28.791Z,37.05
2023-05-17T13:46:56.017Z,37.25
2023-05-17T13:49:23.361Z,37.42
2023-05-17T13:51:50.670Z,37.18
2023-05-17T13:54:20.252Z,37.27
2023-05-17T13:56:47.944Z,37.41
2023-05-17T13:59:15.343Z,37.82
2023-05-17T14:01:43.469Z,37.76
2023-05-17T14:04:11.110Z,38.14
2023-05-17T14:06:39.622Z,38.71
2023-05-17T14:09:06.910Z,38.42
2023-05-17T14:11:34.646Z,37.88
2023-05-17T14:14:02.156Z,37.50
2023-05-17T14:16:29.738Z,37.63
2023-05-17T14:18:57.447Z,37.07
2023-05-17T14:21:24.734Z,36.55
2023-05-17T14:23:52.113Z,36.59
2023-05-17T14:26:19.380Z,35.72
2023-05-17T14:28:46.649Z,35.98
2023-05-17T14:31:13.993Z,34.74
2023-05-17T14:33:41.309Z,33.79
2023-05-17T14:36:08.695Z,32.97
2023-05-17T14:38:37.030Z,32.65
2023-05-17T14:41:06.665Z,33.54
2023-05-17T14:43:33.941Z,34.03
2023-05-17T14:46:01.530Z,33.35
2023-05-17T14:48:28.901Z,33.33
2023-05-17T14:50:56.621Z,33.22
2023-05-17T14:53:28.935Z,33.43
2023-05-17T14:55:57.865Z,32.84
2023-05-17T14:58:25.397Z,32.77
2023-05-17T15:01:04.931Z,33.10
2023-05-17T15:03:33.763Z,33.99
2023-05-17T15:06:03.264Z,33.79
2023-05-17T15:08:32.805Z,34.03
2023-05-17T15:11:01.763Z,33.94
2023-05-17T15:13:29.508Z,33.95
2023-05-17T15:15:56.886Z,33.82
2023-05-17T15:18:24.244Z,34.09
2023-05-17T15:20:51.807Z,33.80
2023-05-17T15:23:19.282Z,34.04
2023-05-17T15:25:46.713Z,33.68
2023-05-17T15:28:14.191Z,33.81
2023-05-17T15:30:42.057Z,33.82
2023-05-17T15:33:10.012Z,33.36
2023-05-17T15:35:40.126Z,33.30
2023-05-17T15:38:07.666Z,33.26
2023-05-17T15:40:34.923Z,32.87
2023-05-17T15:43:02.191Z,32.95
2023-05-17T15:45:29.847Z,33.09
2023-05-17T15:47:57.503Z,32.72
2023-05-17T15:50:24.884Z,32.86
2023-05-17T15:52:52.213Z,32.67
2023-05-17T15:55:19.796Z,32.82
2023-05-17T15:57:47.149Z,32.72
2023-05-17T16:00:14.887Z,32.05
2023-05-17T16:02:42.604Z,32.15
2023-05-17T16:05:10.293Z,32.09
2023-05-17T16:07:37.662Z,32.14
2023-05-17T16:10:05.182Z,32.12
2023-05-17T16:12:32.603Z,32.37
2023-05-17T16:14:59.859Z,32.78
2023-05-17T16:17:27.859Z,32.17
2023-05-17T16:19:55.424Z,32.09
2023-05-17T16:22:23.062Z,33.19
2023-05-17T16:24:53.787Z,32.67
2023-05-17T16:27:21.751Z,33.27
2023-05-17T16:29:49.044Z,33.52
2023-05-17T16:32:16.384Z,33.19
2023-05-17T16:34:43.743Z,32.99
2023-05-17T16:37:11.218Z,33.18
2023-05-17T16:39:38.435Z,33.05
2023-05-17T16:42:05.804Z,33.08
2023-05-17T16:44:33.096Z,33.59
2023-05-17T16:47:01.276Z,33.58
2023-05-17T16:49:30.204Z,33.62
2023-05-17T16:51:57.751Z,33.65
2023-05-17T16:54:28.250Z,33.32
2023-05-17T16:56:56.221Z,33.66
2023-05-17T16:59:23.504Z,33.21
2023-05-17T17:01:51.296Z,32.93
2023-05-17T17:04:18.674Z,33.94
2023-05-17T17:06:46.285Z,34.26
2023-05-17T17:09:14.186Z,34.39
2023-05-17T17:11:41.494Z,34.51
2023-05-17T17:14:09.018Z,34.12
2023-05-17T17:16:36.865Z,33.98
2023-05-17T17:19:04.255Z,34.08
2023-05-17T17:21:36.603Z,34.11
2023-05-17T17:24:05.498Z,34.22
2023-05-17T17:26:35.275Z,34.29
2023-05-17T17:29:04.101Z,34.32
2023-05-17T17:31:32.416Z,34.47
2023-05-17T17:33:59.706Z,34.40
2023-05-17T17:36:27.139Z,34.27
2023-05-17T17:38:54.553Z,34.37
2023-05-17T17:41:23.302Z,34.59
2023-05-17T17:43:50.789Z,34.67
2023-05-17T17:46:18.025Z,34.58
2023-05-17T17:48:45.398Z,34.47
2023-05-17T17:51:12.681Z,34.44
2023-05-17T17:53:41.466Z,34.22
2023-05-17T17:56:08.808Z,34.37
2023-05-17T17:58:36.658Z,34.44
2023-05-17T18:01:05.281Z,34.27
2023-05-17T18:03:32.604Z,34.12
2023-05-17T18:05:59.919Z,34.28
2023-05-17T18:08:27.428Z,34.31
2023-05-17T18:10:54.714Z,34.16
2023-05-17T18:13:22.197Z,34.21
2023-05-17T18:15:49.458Z,34.59
2023-05-17T18:18:19.287Z,34.53
2023-05-17T18:20:46.618Z,34.40
2023-05-17T18:23:13.874Z,34.50
2023-05-17T18:25:41.423Z,34.72
2023-05-17T18:28:09.110Z,34.91
2023-05-17T18:30:36.581Z,34.83
2023-05-17T18:33:04.130Z,35.01
2023-05-17T18:35:31.499Z,35.05
2023-05-17T18:37:59.890Z,34.82
2023-05-17T18:40:27.696Z,34.96
2023-05-17T18:42:55.230Z,34.91
2023-05-17T18:45:22.784Z,35.14
2023-05-17T18:47:50.203Z,34.74
2023-05-17T18:50:17.507Z,34.86
2023-05-17T18:52:44.794Z,34.50
2023-05-17T18:55:12.111Z,34.52
2023-05-17T18:57:39.428Z,34.45
2023-05-17T19:00:07.537Z,34.36
2023-05-17T19:02:34.826Z,34.49
2023-05-17T19:05:02.156Z,34.50
2023-05-17T19:07:29.461Z,34.27
2023-05-17T19:09:56.877Z,34.44
2023-05-17T19:12:24.132Z,34.36
2023-05-17T19:14:51.366Z,34.33
2023-05-17T19:17:18.724Z,34.23
2023-05-17T19:19:46.063Z,34.26
2023-05-17T19:22:14.464Z,33.98
2023-05-17T19:24:41.722Z,34.33
2023-05-17T19:27:10.351Z,34.44
2023-05-17T19:29:38.191Z,34.38
2023-05-17T19:32:06.159Z,34.55
2023-05-17T19:34:33.369Z,34.62
2023-05-17T19:37:00.701Z,34.52
2023-05-17T19:39:28.107Z,34.42
2023-05-17T19:41:55.509Z,34.74
2023-05-17T19:44:22.834Z,34.73
2023-05-17T19:46:50.194Z,34.67
2023-05-17T19:49:17.649Z,34.98
2023-05-17T19:51:46.182Z,34.96
2023-05-17T19:54:13.458Z,35.03
2023-05-17T19:56:40.748Z,35.04
2023-05-17T19:59:08.125Z,35.36
2023-05-17T20:01:35.553Z,35.18
2023-05-17T20:04:07.100Z,35.14
2023-05-17T20:06:34.378Z,35.18
2023-05-17T20:09:01.792Z,35.33
2023-05-17T20:11:29.216Z,35.11
2023-05-17T20:13:56.439Z,35.08
2023-05-17T20:16:27.824Z,35.07
2023-05-17T20:18:57.894Z,35.06
2023-05-17T20:21:26.219Z,35.15
2023-05-17T20:24:03.329Z,35.03
2023-05-17T20:26:36.986Z,34.97
2023-05-17T20:29:08.362Z,35.07
2023-05-17T20:31:36.399Z,35.02
2023-05-17T20:34:04.963Z,35.00
2023-05-17T20:36:32.446Z,35.13
2023-05-17T20:38:59.785Z,34.91
2023-05-17T20:41:27.068Z,35.14
2023-05-17T20:43:54.687Z,35.21
2023-05-17T20:46:22.095Z,35.05
2023-05-17T20:48:49.982Z,34.94
2023-05-17T20:51:18.183Z,35.17
2023-05-17T20:53:46.386Z,35.12
2023-05-17T20:56:19.240Z,35.23
2023-05-17T20:58:47.732Z,35.03
2023-05-17T21:01:17.407Z,35.58
2023-05-17T21:03:44.957Z,35.23
2023-05-17T21:06:13.042Z,35.55
2023-05-17T21:08:40.655Z,35.43
2023-05-17T21:11:08.228Z,35.67
2023-05-17T21:13:35.490Z,35.78
2023-05-17T21:16:02.843Z,35.69
2023-05-17T21:18:30.092Z,36.24
2023-05-17T21:20:57.268Z,36.53
2023-05-17T21:23:24.509Z,36.58
2023-05-17T21:25:51.915Z,36.78
2023-05-17T21:28:19.755Z,36.82
2023-05-17T21:30:47.029Z,37.18
2023-05-17T21:33:14.444Z,36.51
2023-05-17T21:35:41.818Z,36.04
2023-05-17T21:38:09.646Z,35.83
2023-05-17T21:40:37.908Z,35.41
2023-05-17T21:43:06.891Z,35.35
2023-05-17T21:45:34.320Z,35.36
2023-05-17T21:48:01.725Z,34.90
2023-05-17T21:50:29.265Z,35.43
2023-05-17T21:52:56.807Z,34.98
2023-05-17T21:55:24.242Z,35.28
2023-05-17T21:57:51.528Z,35.55
2023-05-17T22:00:20.165Z,35.49
2023-05-17T22:02:48.000Z,35.25
2023-05-17T22:05:15.516Z,35.45
2023-05-17T22:07:42.857Z,35.41
2023-05-17T22:10:10.404Z,35.34
2023-05-17T22:12:38.403Z,35.41
2023-05-17T22:15:06.345Z,35.46
2023-05-17T22:17:43.187Z,35.26
2023-05-17T22:20:16.949Z,35.36
2023-05-17T22:22:44.326Z,35.43
2023-05-17T22:25:12.122Z,35.42
2023-05-17T22:27:39.443Z,35.64
2023-05-17T22:30:07.807Z,35.79
2023-05-17T22:32:37.436Z,35.75
2023-05-17T22:35:05.023Z,35.60
2023-05-17T22:37:32.942Z,35.71
2023-05-17T22:40:00.422Z,35.88
2023-05-17T22:42:27.753Z,35.72
2023-05-17T22:44:55.097Z,35.99
2023-05-17T22:47:23.363Z,36.00
2023-05-17T22:49:53.616Z,35.79
2023-05-17T22:52:20.903Z,36.07
2023-05-17T22:54:48.217Z,36.14
2023-05-17T22:57:15.481Z,36.18
2023-05-17T22:59:44.012Z,36.05
2023-05-17T23:02:12.410Z,36.25
2023-05-17T23:04:40.333Z,36.08
2023-05-17T23:07:09.974Z,36.15
2023-05-17T23:09:40.728Z,36.41
2023-05-17T23:12:13.856Z,36.30
2023-05-17T23:14:41.147Z,36.41
2023-05-17T23:17:08.558Z,36.51
2023-05-17T23:19:35.952Z,36.68
2023-05-17T23:22:04.109Z,36.65
2023-05-17T23:24:31.567Z,36.69
2023-05-17T23:26:59.128Z,36.49
2023-05-17T23:29:26.445Z,36.25
2023-05-17T23:31:54.194Z,36.18
2023-05-17T23:34:22.129Z,35.99
2023-05-17T23:36:49.383Z,35.93
2023-05-17T23:39:16.626Z,35.86
2023-05-17T23:41:44.227Z,35.61
2023-05-17T23:44:11.650Z,35.52
2023-05-17T23:46:39.341Z,35.62
2023-05-17T23:49:06.832Z,35.41
2023-05-17T23:51:34.925Z,35.52
2023-05-17T23:54:02.285Z,35.30
2023-05-17T23:56:30.071Z,35.46
2023-05-17T23:58:57.366Z,35.45
